Aviation Digital Data Service (ADDS)

Output produced by METARs form (1505 UTC 29 May 2017)
found at http://www.aviationweather.gov/adds/metars/
 
METAR text: KSLO 291455Z AUTO 24009KT 10SM CLR 23/14 A2993 RMK AO2 T02340144
Conditions at: KSLO (SALEM/LECKRONE , IL, US) observed 1455 UTC 29 May 2017
Temperature: 23.4°C (74°F)
Dewpoint: 14.4°C (58°F) [RH = 57%]
Pressure (altimeter): 29.93 inches Hg (1013.6 mb)
Winds: from the WSW (240 degrees) at 10 MPH (9 knots; 4.7 m/s)
Visibility: 10 or more miles (16+ km)
Ceiling: at least 12,000 feet AGL
Clouds: sky clear below 12,000 feet AGL
Weather: automated observation with no human augmentation;
there may or may not be significant weather present at this time